Nearby METAR Reports

 

KEQY - Monroe, North Carolina, USA
Distance from station: S 11mi, 18km
Updated: Sat, 06/25/2016 8:53pm EDT
Few Clouds
Few Clouds
 Wind from NE
Wind: NE 6 mph , 9 km/h
Temperature: 79°F , 26°C
Dew Point: 66°F , 19°C
Humidity: 65%
Barometer: 30.12 inHg , 1020 hPa
Clouds: Few Clouds
Visibility: 10 miles , 16 km
Cloud details: Few Clouds 10000 ft
2016/06/26 00:53 KEQY 260053Z AUTO 05005KT 10SM FEW100 26/19 A3012 RMK AO2 SLP198 T02610189 TSNO
KJQF - Concord Reg Arpt, North Carolina, USA
Distance from station: NNW 16mi, 25km
Updated: Sat, 06/25/2016 8:50pm EDT
Partly cloudy
Partly cloudy
 Wind from E
Wind: E 8 mph , 13 km/h
Temperature: 81°F , 27°C
Heat Index: 83°F , 28°C
Dew Point: 66°F , 19°C
Humidity: 62%
Barometer: 30.18 inHg , 1022 hPa
Clouds: Partly cloudy
Visibility: 10 miles , 16 km
Cloud details: Partly cloudy 11000 ft
2016/06/26 00:50 KJQF 260050Z 09007KT 10SM SCT110 27/19 A3018
 
KCLT - Charlotte, North Carolina, USA
Distance from station: W 20mi, 33km
Updated: Sat, 06/25/2016 8:52pm EDT
Mostly cloudy
Mostly cloudy
 Wind from ENE
Wind: ENE 10 mph , 17 km/h, Gust: 22 mph , 35 km/h
Temperature: 82°F , 28°C
Heat Index: 84°F , 29°C
Dew Point: 66°F , 19°C
Humidity: 58%
Barometer: 30.14 inHg , 1020.7 hPa
Clouds: Mostly cloudy
Visibility: 10 miles , 16 km
Cloud details: Few Clouds 3400 ft
Partly cloudy 10000 ft
Mostly cloudy 25000 ft
2016/06/26 00:52 KCLT 260052Z 07009G19KT 020V080 10SM FEW034 SCT100 BKN250 28/19 A3014 RMK AO2 SLP197 T02780189
KUZA - Rock Hill, South Carolina, USA
Distance from station: WSW 29mi, 47km
Updated: Sat, 06/25/2016 8:54pm EDT
Clear
Clear
 Wind from calm
Wind: Calm
Temperature: 81°F , 27°C
Heat Index: 83°F , 28°C
Dew Point: 66°F , 19°C
Humidity: 62%
Barometer: 30.14 inHg , 1020.7 hPa
Clouds: Clear
Visibility: 10 miles , 16 km
2016/06/26 00:54 KUZA 260054Z AUTO 00000KT 10SM CLR 27/19 A3014 RMK AO2 SLP189 T02670194
 
KVUJ - Albemarle Stanly, North Carolina, USA
Distance from station: NE 30mi, 48km
Updated: Sat, 06/25/2016 8:45pm EDT
Clear
Clear
 Wind from NE
Wind: NE 7 mph , 11 km/h
Temperature: 77°F , 25°C
Dew Point: 70°F , 21°C
Humidity: 79%
Barometer: 30.18 inHg , 1022 hPa
Clouds: Clear
Visibility: 10 miles , 16 km
2016/06/26 00:45 KVUJ 260045Z AUTO 04006KT 10SM CLR 25/21 A3018 RMK AO2 T02500213
KAFP - Wadesboro/Anson, North Carolina, USA
Distance from station: ESE 31mi, 50km
Updated: Sat, 06/25/2016 8:50pm EDT
Partly cloudy
Partly cloudy
 Wind from N
Wind: N 5 mph , 7 km/h
Temperature: 82°F , 28°C
Heat Index: 85°F , 29°C
Dew Point: 68°F , 20°C
Humidity: 62%
Barometer: 30.11 inHg , 1019.6 hPa
Clouds: Partly cloudy
Visibility: 10 miles , 16 km
Cloud details: Partly cloudy 3900 ft
2016/06/26 00:50 KAFP 260050Z AUTO 01004KT 10SM SCT039 28/20 A3011 RMK AO2 T02750202
 
KAKH - Gastonia, North Carolina, USA
Distance from station: W 31mi, 51km
Updated: Sat, 06/25/2016 8:54pm EDT
Clear
Clear
 Wind from ENE
Wind: ENE 5 mph , 7 km/h
Temperature: 81°F , 27°C
Heat Index: 83°F , 28°C
Dew Point: 66°F , 19°C
Humidity: 62%
Barometer: 30.14 inHg , 1020.7 hPa
Clouds: Clear
Visibility: 10 miles , 16 km
2016/06/26 00:54 KAKH 260054Z AUTO 07004KT 10SM CLR 27/19 A3014 RMK AO2 SLP197 T02670189 TSNO
KRUQ - Salisbury Rowan, North Carolina, USA
Distance from station: N 33mi, 53km
Updated: Sat, 06/25/2016 8:50pm EDT
Clear
Clear
 Wind from E
Wind: E 5 mph , 7 km/h
Temperature: 77°F , 25°C
Dew Point: 68°F , 20°C
Humidity: 74%
Barometer: 30.15 inHg , 1021 hPa
Clouds: Clear
Visibility: 10 miles , 16 km
2016/06/26 00:50 KRUQ 260050Z AUTO 08004KT 10SM CLR 25/20 A3015 RMK AO2 T02490201
 
KLKR - Lancaster, South Carolina, USA
Distance from station: SSW 35mi, 57km
Updated: Sat, 06/25/2016 8:55pm EDT
Clear
Clear
 Wind from NNE
Wind: NNE 3 mph , 6 km/h
Temperature: 81°F , 27°C
Heat Index: 84°F , 29°C
Dew Point: 68°F , 20°C
Humidity: 66%
Barometer: 30.12 inHg , 1020 hPa
Clouds: Clear
Visibility: 10 miles , 16 km
2016/06/26 00:55 KLKR 260055Z AUTO 03003KT 10SM CLR 27/20 A3012 RMK AO2 PWINO
KIPJ - Lincolnton, North Carolina, USA
Distance from station: WNW 39mi, 62km
Updated: Sat, 06/25/2016 9:00pm EDT
Mostly cloudy
Mostly cloudy
 Wind from E
Wind: E 5 mph , 7 km/h
Temperature: 79°F , 26°C
Dew Point: 66°F , 19°C
Humidity: 65%
Barometer: 30.15 inHg , 1021 hPa
Clouds: Mostly cloudy
Visibility: 10 miles , 16 km
Cloud details: Mostly cloudy 8500 ft
Mostly cloudy 11000 ft
2016/06/26 01:00 KIPJ 260100Z AUTO 08004KT 10SM BKN085 BKN110 26/19 A3015 RMK AO2 T02630187
 
KDCM - Chester Catawba, South Carolina, USA
Distance from station: SW 44mi, 71km
Updated: Sat, 06/25/2016 8:55pm EDT
Clear
Clear
 Wind from ENE
Wind: ENE 3 mph , 6 km/h
Temperature: 79°F , 26°C
Dew Point: 64°F , 18°C
Humidity: 61%
Barometer: 30.14 inHg , 1020.7 hPa
Clouds: Clear
Visibility: 7 miles , 11 km
2016/06/26 00:55 KDCM 260055Z AUTO 06003KT 7SM CLR 26/18 A3014 RMK AO2
KSVH - Statesville, North Carolina, USA
Distance from station: NNW 44mi, 71km
Updated: Sat, 06/25/2016 8:50pm EDT
Overcast
Overcast
 Wind from E
Wind: E 5 mph , 7 km/h
Temperature: 79°F , 26°C
Dew Point: 68°F , 20°C
Humidity: 70%
Barometer: 30.16 inHg , 1021.3 hPa
Clouds: Overcast
Visibility: 10 miles , 16 km
Cloud details: Overcast 9500 ft
2016/06/26 00:50 KSVH 260050Z AUTO 09004KT 10SM OVC095 26/20 A3016 RMK AO2 T02570196
 
KEXX - Davidson Cty Ap, North Carolina, USA
Distance from station: NNE 45mi, 72km
Updated: Sat, 06/25/2016 8:50pm EDT
Clear
Clear
 Wind from calm
Wind: Calm
Temperature: 75°F , 24°C
Dew Point: 68°F , 20°C
Humidity: 78%
Barometer: 30.15 inHg , 1021 hPa
Clouds: Clear
Visibility: 10 miles , 16 km
2016/06/26 00:50 KEXX 260050Z AUTO 00000KT 10SM CLR 24/20 A3015 RMK AO2 T02370199
KCQW - Cheraw, South Carolina, USA
Distance from station: SE 49mi, 78km
Updated: Sat, 06/25/2016 8:55pm EDT
Mostly cloudy
Mostly cloudy
 Wind from NE
Wind: NE 3 mph , 6 km/h
Temperature: 81°F , 27°C
Heat Index: 85°F , 29°C
Dew Point: 70°F , 21°C
Humidity: 70%
Barometer: 30.10 inHg , 1019.3 hPa
Clouds: Mostly cloudy
Visibility: 10 miles , 16 km
Cloud details: Mostly cloudy 100 ft
2016/06/26 00:55 KCQW 260055Z AUTO 05003KT 10SM BKN001 27/21 A3010 RMK AO2